sensor_id;sensor_type;location;lat;lon;timestamp;pressure;altitude;pressure_sealevel;temperature;humidity
44441;BME280;30146;52.268;20.944;2023-11-19T00:01:55;101006.43;;;2.33;71.09
44441;BME280;30146;52.268;20.944;2023-11-19T00:04:27;101001.68;;;2.32;70.68
44441;BME280;30146;52.268;20.944;2023-11-19T00:07:00;101001.85;;;2.31;70.81
44441;BME280;30146;52.268;20.944;2023-11-19T00:09:34;100998.75;;;2.30;71.19
44441;BME280;30146;52.268;20.944;2023-11-19T00:12:08;101001.62;;;2.29;70.98
44441;BME280;30146;52.268;20.944;2023-11-19T00:14:39;101009.00;;;2.28;71.06
44441;BME280;30146;52.268;20.944;2023-11-19T00:17:10;101014.05;;;2.27;71.00
44441;BME280;30146;52.268;20.944;2023-11-19T00:19:41;101011.48;;;2.27;71.05
44441;BME280;30146;52.268;20.944;2023-11-19T00:22:12;101007.95;;;2.27;71.16
44441;BME280;30146;52.268;20.944;2023-11-19T00:24:43;101002.36;;;2.27;70.95
44441;BME280;30146;52.268;20.944;2023-11-19T00:27:15;100998.20;;;2.28;71.13
44441;BME280;30146;52.268;20.944;2023-11-19T00:29:47;100998.18;;;2.28;71.07
44441;BME280;30146;52.268;20.944;2023-11-19T00:32:18;100992.92;;;2.27;70.88
44441;BME280;30146;52.268;20.944;2023-11-19T00:34:49;100988.83;;;2.26;70.95
44441;BME280;30146;52.268;20.944;2023-11-19T00:37:20;100985.23;;;2.24;71.10
44441;BME280;30146;52.268;20.944;2023-11-19T00:39:52;100980.38;;;2.25;70.91
44441;BME280;30146;52.268;20.944;2023-11-19T00:42:23;100971.28;;;2.25;71.16
44441;BME280;30146;52.268;20.944;2023-11-19T00:44:54;100966.44;;;2.27;71.17
44441;BME280;30146;52.268;20.944;2023-11-19T00:47:26;100963.63;;;2.29;71.32
44441;BME280;30146;52.268;20.944;2023-11-19T00:49:57;100963.88;;;2.31;71.10
44441;BME280;30146;52.268;20.944;2023-11-19T00:52:28;100961.99;;;2.30;71.21
44441;BME280;30146;52.268;20.944;2023-11-19T00:55:00;100959.61;;;2.30;71.00
44441;BME280;30146;52.268;20.944;2023-11-19T00:57:31;100959.11;;;2.29;71.09
44441;BME280;30146;52.268;20.944;2023-11-19T01:00:04;100948.31;;;2.30;71.24
44441;BME280;30146;52.268;20.944;2023-11-19T01:02:39;100938.55;;;2.31;71.06
44441;BME280;30146;52.268;20.944;2023-11-19T01:05:10;100928.44;;;2.31;71.10
44441;BME280;30146;52.268;20.944;2023-11-19T01:07:43;100927.79;;;2.31;70.94
44441;BME280;30146;52.268;20.944;2023-11-19T01:10:15;100925.14;;;2.34;70.94
44441;BME280;30146;52.268;20.944;2023-11-19T01:12:46;100924.17;;;2.34;71.25
44441;BME280;30146;52.268;20.944;2023-11-19T01:15:17;100919.42;;;2.34;71.15
44441;BME280;30146;52.268;20.944;2023-11-19T01:17:50;100916.40;;;2.34;71.02
44441;BME280;30146;52.268;20.944;2023-11-19T01:20:22;100906.83;;;2.36;70.98
44441;BME280;30146;52.268;20.944;2023-11-19T01:22:54;100900.47;;;2.37;71.36
44441;BME280;30146;52.268;20.944;2023-11-19T01:25:25;100897.41;;;2.36;71.25
44441;BME280;30146;52.268;20.944;2023-11-19T01:31:05;100896.40;;;2.31;71.07
44441;BME280;30146;52.268;20.944;2023-11-19T01:33:40;100901.58;;;2.29;71.25
44441;BME280;30146;52.268;20.944;2023-11-19T01:36:14;100907.02;;;2.31;71.10
44441;BME280;30146;52.268;20.944;2023-11-19T01:38:45;100910.47;;;2.33;71.10
44441;BME280;30146;52.268;20.944;2023-11-19T01:41:15;100912.03;;;2.35;71.47
44441;BME280;30146;52.268;20.944;2023-11-19T01:43:46;100908.10;;;2.33;71.00
44441;BME280;30146;52.268;20.944;2023-11-19T01:46:17;100896.16;;;2.29;71.00
44441;BME280;30146;52.268;20.944;2023-11-19T01:48:48;100890.50;;;2.26;70.77
44441;BME280;30146;52.268;20.944;2023-11-19T01:51:20;100879.99;;;2.25;71.07
44441;BME280;30146;52.268;20.944;2023-11-19T01:53:52;100877.84;;;2.26;70.84
44441;BME280;30146;52.268;20.944;2023-11-19T01:56:24;100871.73;;;2.25;71.15
44441;BME280;30146;52.268;20.944;2023-11-19T01:58:56;100866.65;;;2.24;71.05
44441;BME280;30146;52.268;20.944;2023-11-19T02:01:27;100863.11;;;2.24;71.06
44441;BME280;30146;52.268;20.944;2023-11-19T02:03:59;100860.73;;;2.24;71.19
44441;BME280;30146;52.268;20.944;2023-11-19T02:06:34;100861.73;;;2.23;71.08
44441;BME280;30146;52.268;20.944;2023-11-19T02:09:06;100858.13;;;2.22;71.24
44441;BME280;30146;52.268;20.944;2023-11-19T02:11:38;100857.33;;;2.18;70.80
44441;BME280;30146;52.268;20.944;2023-11-19T02:14:10;100856.57;;;2.15;71.13
44441;BME280;30146;52.268;20.944;2023-11-19T02:16:41;100852.70;;;2.16;71.14
44441;BME280;30146;52.268;20.944;2023-11-19T02:19:12;100848.31;;;2.16;71.05
44441;BME280;30146;52.268;20.944;2023-11-19T02:21:42;100843.42;;;2.15;71.35
44441;BME280;30146;52.268;20.944;2023-11-19T02:24:15;100841.86;;;2.14;71.14
44441;BME280;30146;52.268;20.944;2023-11-19T02:26:55;100837.62;;;2.13;71.10
44441;BME280;30146;52.268;20.944;2023-11-19T02:29:29;100839.64;;;2.14;71.51
44441;BME280;30146;52.268;20.944;2023-11-19T02:32:00;100834.73;;;2.13;71.23
44441;BME280;30146;52.268;20.944;2023-11-19T02:34:33;100830.67;;;2.12;71.54
44441;BME280;30146;52.268;20.944;2023-11-19T02:37:04;100824.09;;;2.12;71.31
44441;BME280;30146;52.268;20.944;2023-11-19T02:39:35;100821.27;;;2.14;71.48
44441;BME280;30146;52.268;20.944;2023-11-19T02:42:07;100824.32;;;2.14;71.50
44441;BME280;30146;52.268;20.944;2023-11-19T02:44:38;100824.14;;;2.14;71.31
44441;BME280;30146;52.268;20.944;2023-11-19T02:47:09;100823.77;;;2.13;71.25
44441;BME280;30146;52.268;20.944;2023-11-19T02:49:40;100814.90;;;2.15;71.57
44441;BME280;30146;52.268;20.944;2023-11-19T02:52:12;100808.27;;;2.18;71.76
44441;BME280;30146;52.268;20.944;2023-11-19T02:54:44;100804.84;;;2.22;71.68
44441;BME280;30146;52.268;20.944;2023-11-19T02:57:15;100795.51;;;2.25;71.94
44441;BME280;30146;52.268;20.944;2023-11-19T02:59:51;100785.11;;;2.27;71.91
44441;BME280;30146;52.268;20.944;2023-11-19T03:02:23;100781.67;;;2.31;71.93
44441;BME280;30146;52.268;20.944;2023-11-19T03:05:04;100778.75;;;2.34;72.04
44441;BME280;30146;52.268;20.944;2023-11-19T03:07:34;100772.88;;;2.36;71.87
44441;BME280;30146;52.268;20.944;2023-11-19T03:10:07;100774.31;;;2.38;71.67
44441;BME280;30146;52.268;20.944;2023-11-19T03:12:39;100769.78;;;2.39;71.71
44441;BME280;30146;52.268;20.944;2023-11-19T03:15:10;100765.70;;;2.38;71.40
44441;BME280;30146;52.268;20.944;2023-11-19T03:17:42;100764.79;;;2.36;71.21
44441;BME280;30146;52.268;20.944;2023-11-19T03:20:13;100760.38;;;2.35;71.39
44441;BME280;30146;52.268;20.944;2023-11-19T03:22:46;100753.48;;;2.35;71.57
44441;BME280;30146;52.268;20.944;2023-11-19T03:25:17;100748.26;;;2.36;71.54
44441;BME280;30146;52.268;20.944;2023-11-19T03:27:49;100742.55;;;2.37;71.66
44441;BME280;30146;52.268;20.944;2023-11-19T03:30:20;100737.89;;;2.39;71.88
44441;BME280;30146;52.268;20.944;2023-11-19T03:33:03;100736.77;;;2.40;71.91
44441;BME280;30146;52.268;20.944;2023-11-19T03:35:34;100734.11;;;2.42;71.74
44441;BME280;30146;52.268;20.944;2023-11-19T03:38:04;100736.77;;;2.41;71.69
44441;BME280;30146;52.268;20.944;2023-11-19T03:40:35;100735.60;;;2.41;71.71
44441;BME280;30146;52.268;20.944;2023-11-19T03:43:07;100736.94;;;2.41;71.82
44441;BME280;30146;52.268;20.944;2023-11-19T03:45:39;100736.95;;;2.41;71.77
44441;BME280;30146;52.268;20.944;2023-11-19T03:48:09;100732.77;;;2.42;71.78
44441;BME280;30146;52.268;20.944;2023-11-19T03:50:40;100734.32;;;2.43;71.84
44441;BME280;30146;52.268;20.944;2023-11-19T03:53:12;100727.06;;;2.43;71.87
44441;BME280;30146;52.268;20.944;2023-11-19T03:55:43;100721.48;;;2.43;71.91
44441;BME280;30146;52.268;20.944;2023-11-19T03:58:14;100717.18;;;2.40;71.41
44441;BME280;30146;52.268;20.944;2023-11-19T04:00:44;100701.48;;;2.39;71.79
44441;BME280;30146;52.268;20.944;2023-11-19T04:03:15;100696.94;;;2.40;71.66
44441;BME280;30146;52.268;20.944;2023-11-19T04:05:46;100695.07;;;2.40;71.60
44441;BME280;30146;52.268;20.944;2023-11-19T04:08:18;100691.88;;;2.41;71.86
44441;BME280;30146;52.268;20.944;2023-11-19T04:10:49;100687.67;;;2.41;71.85
44441;BME280;30146;52.268;20.944;2023-11-19T04:13:20;100680.61;;;2.42;71.60
44441;BME280;30146;52.268;20.944;2023-11-19T04:15:51;100672.50;;;2.41;71.54
44441;BME280;30146;52.268;20.944;2023-11-19T04:18:22;100669.30;;;2.41;71.78
44441;BME280;30146;52.268;20.944;2023-11-19T04:20:56;100666.73;;;2.40;71.65
44441;BME280;30146;52.268;20.944;2023-11-19T04:23:27;100664.50;;;2.39;71.59
44441;BME280;30146;52.268;20.944;2023-11-19T04:25:58;100658.57;;;2.38;71.59
44441;BME280;30146;52.268;20.944;2023-11-19T04:28:39;100655.20;;;2.38;72.03
44441;BME280;30146;52.268;20.944;2023-11-19T04:31:10;100655.38;;;2.38;71.71
44441;BME280;30146;52.268;20.944;2023-11-19T04:33:41;100648.64;;;2.39;71.94
44441;BME280;30146;52.268;20.944;2023-11-19T04:36:12;100640.84;;;2.37;71.79
44441;BME280;30146;52.268;20.944;2023-11-19T04:38:43;100636.27;;;2.37;71.66
44441;BME280;30146;52.268;20.944;2023-11-19T04:41:15;100634.86;;;2.35;71.39
44441;BME280;30146;52.268;20.944;2023-11-19T04:43:46;100630.95;;;2.34;71.54
44441;BME280;30146;52.268;20.944;2023-11-19T04:46:17;100628.73;;;2.33;71.56
44441;BME280;30146;52.268;20.944;2023-11-19T04:48:48;100626.87;;;2.33;71.76
44441;BME280;30146;52.268;20.944;2023-11-19T04:51:19;100629.38;;;2.32;71.74
44441;BME280;30146;52.268;20.944;2023-11-19T04:53:50;100624.83;;;2.32;71.67
44441;BME280;30146;52.268;20.944;2023-11-19T04:56:21;100625.55;;;2.34;71.79
44441;BME280;30146;52.268;20.944;2023-11-19T04:58:52;100617.33;;;2.35;71.97
44441;BME280;30146;52.268;20.944;2023-11-19T05:01:23;100615.14;;;2.36;71.96
44441;BME280;30146;52.268;20.944;2023-11-19T05:03:54;100616.67;;;2.36;71.87
44441;BME280;30146;52.268;20.944;2023-11-19T05:06:27;100615.15;;;2.36;71.80
44441;BME280;30146;52.268;20.944;2023-11-19T05:08:59;100612.27;;;2.35;71.95
44441;BME280;30146;52.268;20.944;2023-11-19T05:11:35;100603.82;;;2.35;71.80
44441;BME280;30146;52.268;20.944;2023-11-19T05:14:20;100595.56;;;2.35;71.96
44441;BME280;30146;52.268;20.944;2023-11-19T05:16:51;100586.74;;;2.34;71.87
44441;BME280;30146;52.268;20.944;2023-11-19T05:19:22;100588.10;;;2.33;71.58
44441;BME280;30146;52.268;20.944;2023-11-19T05:21:53;100589.16;;;2.35;72.04
44441;BME280;30146;52.268;20.944;2023-11-19T05:24:24;100588.85;;;2.36;71.89
44441;BME280;30146;52.268;20.944;2023-11-19T05:26:55;100583.45;;;2.36;71.88
44441;BME280;30146;52.268;20.944;2023-11-19T05:29:26;100580.04;;;2.35;71.77
44441;BME280;30146;52.268;20.944;2023-11-19T05:31:57;100575.98;;;2.35;71.68
44441;BME280;30146;52.268;20.944;2023-11-19T05:34:28;100577.01;;;2.35;71.84
44441;BME280;30146;52.268;20.944;2023-11-19T05:36:59;100577.52;;;2.35;71.85
44441;BME280;30146;52.268;20.944;2023-11-19T05:39:30;100575.46;;;2.34;71.99
44441;BME280;30146;52.268;20.944;2023-11-19T05:42:01;100572.06;;;2.33;71.71
44441;BME280;30146;52.268;20.944;2023-11-19T05:44:31;100567.96;;;2.32;71.83
44441;BME280;30146;52.268;20.944;2023-11-19T05:47:02;100567.48;;;2.33;71.77
44441;BME280;30146;52.268;20.944;2023-11-19T05:49:33;100565.63;;;2.33;71.90
44441;BME280;30146;52.268;20.944;2023-11-19T05:52:05;100565.77;;;2.31;71.69
44441;BME280;30146;52.268;20.944;2023-11-19T05:54:38;100556.98;;;2.31;72.03
44441;BME280;30146;52.268;20.944;2023-11-19T05:57:09;100559.51;;;2.30;71.70
44441;BME280;30146;52.268;20.944;2023-11-19T05:59:40;100556.31;;;2.31;71.55
44441;BME280;30146;52.268;20.944;2023-11-19T06:02:11;100559.00;;;2.30;71.82
44441;BME280;30146;52.268;20.944;2023-11-19T06:04:41;100560.50;;;2.29;71.74
44441;BME280;30146;52.268;20.944;2023-11-19T06:07:13;100564.86;;;2.29;71.94
44441;BME280;30146;52.268;20.944;2023-11-19T06:09:44;100563.70;;;2.29;71.77
44441;BME280;30146;52.268;20.944;2023-11-19T06:12:16;100557.64;;;2.30;72.11
44441;BME280;30146;52.268;20.944;2023-11-19T06:14:46;100562.38;;;2.30;71.97
44441;BME280;30146;52.268;20.944;2023-11-19T06:17:17;100561.63;;;2.28;71.78
44441;BME280;30146;52.268;20.944;2023-11-19T06:19:48;100559.96;;;2.23;71.55
44441;BME280;30146;52.268;20.944;2023-11-19T06:22:19;100554.61;;;2.18;71.46
44441;BME280;30146;52.268;20.944;2023-11-19T06:24:50;100550.44;;;2.14;71.70
44441;BME280;30146;52.268;20.944;2023-11-19T06:27:22;100546.60;;;2.09;71.35
44441;BME280;30146;52.268;20.944;2023-11-19T06:29:53;100539.88;;;2.04;71.51
44441;BME280;30146;52.268;20.944;2023-11-19T06:32:24;100539.95;;;2.01;71.81
44441;BME280;30146;52.268;20.944;2023-11-19T06:34:55;100537.71;;;1.99;71.68
44441;BME280;30146;52.268;20.944;2023-11-19T06:37:26;100536.00;;;1.98;71.75
44441;BME280;30146;52.268;20.944;2023-11-19T06:39:57;100529.52;;;1.96;71.76
44441;BME280;30146;52.268;20.944;2023-11-19T06:42:28;100524.02;;;1.92;71.72
44441;BME280;30146;52.268;20.944;2023-11-19T06:44:59;100513.02;;;1.90;71.81
44441;BME280;30146;52.268;20.944;2023-11-19T06:47:30;100508.41;;;1.88;71.60
44441;BME280;30146;52.268;20.944;2023-11-19T06:50:01;100504.84;;;1.86;71.86
44441;BME280;30146;52.268;20.944;2023-11-19T06:52:34;100500.54;;;1.84;71.46
44441;BME280;30146;52.268;20.944;2023-11-19T06:55:08;100502.98;;;1.81;71.57
44441;BME280;30146;52.268;20.944;2023-11-19T06:57:39;100503.29;;;1.80;71.47
44441;BME280;30146;52.268;20.944;2023-11-19T07:00:12;100501.68;;;1.77;71.50
44441;BME280;30146;52.268;20.944;2023-11-19T07:02:42;100495.05;;;1.75;71.55
44441;BME280;30146;52.268;20.944;2023-11-19T07:05:14;100490.65;;;1.74;71.63
44441;BME280;30146;52.268;20.944;2023-11-19T07:07:45;100489.72;;;1.71;71.44
44441;BME280;30146;52.268;20.944;2023-11-19T07:10:16;100486.59;;;1.67;71.33
44441;BME280;30146;52.268;20.944;2023-11-19T07:12:47;100482.61;;;1.64;71.53
44441;BME280;30146;52.268;20.944;2023-11-19T07:15:19;100478.06;;;1.64;71.50
44441;BME280;30146;52.268;20.944;2023-11-19T07:17:50;100475.02;;;1.64;71.55
44441;BME280;30146;52.268;20.944;2023-11-19T07:20:26;100473.94;;;1.61;71.52
44441;BME280;30146;52.268;20.944;2023-11-19T07:22:57;100475.37;;;1.58;71.37
44441;BME280;30146;52.268;20.944;2023-11-19T07:25:28;100475.42;;;1.54;71.45
44441;BME280;30146;52.268;20.944;2023-11-19T07:27:59;100472.47;;;1.51;71.47
44441;BME280;30146;52.268;20.944;2023-11-19T07:30:29;100476.30;;;1.49;71.74
44441;BME280;30146;52.268;20.944;2023-11-19T07:33:00;100472.84;;;1.46;71.53
44441;BME280;30146;52.268;20.944;2023-11-19T07:35:33;100468.02;;;1.43;71.59
44441;BME280;30146;52.268;20.944;2023-11-19T07:38:04;100465.77;;;1.41;71.62
44441;BME280;30146;52.268;20.944;2023-11-19T07:40:36;100463.33;;;1.38;71.67
44441;BME280;30146;52.268;20.944;2023-11-19T07:43:06;100463.87;;;1.33;71.58
44441;BME280;30146;52.268;20.944;2023-11-19T07:45:37;100463.11;;;1.31;71.60
44441;BME280;30146;52.268;20.944;2023-11-19T07:48:08;100458.16;;;1.29;71.68
44441;BME280;30146;52.268;20.944;2023-11-19T07:50:40;100454.08;;;1.27;71.54
44441;BME280;30146;52.268;20.944;2023-11-19T07:53:11;100446.10;;;1.25;71.51
44441;BME280;30146;52.268;20.944;2023-11-19T07:55:42;100439.77;;;1.28;71.82
44441;BME280;30146;52.268;20.944;2023-11-19T07:58:13;100433.71;;;1.33;72.17
44441;BME280;30146;52.268;20.944;2023-11-19T08:00:44;100429.89;;;1.41;72.37
44441;BME280;30146;52.268;20.944;2023-11-19T08:03:15;100428.34;;;1.46;72.21
44441;BME280;30146;52.268;20.944;2023-11-19T08:05:46;100428.66;;;1.51;72.09
44441;BME280;30146;52.268;20.944;2023-11-19T08:08:17;100422.05;;;1.56;72.22
44441;BME280;30146;52.268;20.944;2023-11-19T08:10:48;100419.85;;;1.61;72.27
44441;BME280;30146;52.268;20.944;2023-11-19T08:13:20;100418.99;;;1.67;72.31
44441;BME280;30146;52.268;20.944;2023-11-19T08:15:52;100414.35;;;1.69;71.97
44441;BME280;30146;52.268;20.944;2023-11-19T08:18:22;100413.35;;;1.69;71.81
44441;BME280;30146;52.268;20.944;2023-11-19T08:20:53;100407.84;;;1.72;71.83
44441;BME280;30146;52.268;20.944;2023-11-19T08:23:26;100405.52;;;1.73;71.79
44441;BME280;30146;52.268;20.944;2023-11-19T08:25:58;100396.76;;;1.73;71.71
44441;BME280;30146;52.268;20.944;2023-11-19T08:28:29;100389.92;;;1.76;71.67
44441;BME280;30146;52.268;20.944;2023-11-19T08:31:00;100387.56;;;1.76;71.67
44441;BME280;30146;52.268;20.944;2023-11-19T08:33:32;100391.14;;;1.78;71.64
44441;BME280;30146;52.268;20.944;2023-11-19T08:36:03;100387.98;;;1.79;71.46
44441;BME280;30146;52.268;20.944;2023-11-19T08:38:34;100385.92;;;1.78;71.58
44441;BME280;30146;52.268;20.944;2023-11-19T08:41:05;100387.02;;;1.80;71.52
44441;BME280;30146;52.268;20.944;2023-11-19T08:43:36;100376.89;;;1.86;71.79
44441;BME280;30146;52.268;20.944;2023-11-19T08:46:12;100377.04;;;1.92;71.97
44441;BME280;30146;52.268;20.944;2023-11-19T08:48:43;100377.09;;;1.94;71.94
44441;BME280;30146;52.268;20.944;2023-11-19T08:51:14;100386.55;;;1.95;71.73
44441;BME280;30146;52.268;20.944;2023-11-19T08:53:44;100379.54;;;1.91;71.44
44441;BME280;30146;52.268;20.944;2023-11-19T08:56:16;100372.56;;;1.89;71.35
44441;BME280;30146;52.268;20.944;2023-11-19T08:58:46;100370.36;;;1.88;71.19
44441;BME280;30146;52.268;20.944;2023-11-19T09:01:17;100367.59;;;1.85;71.11
44441;BME280;30146;52.268;20.944;2023-11-19T09:03:48;100359.73;;;1.87;71.47
44441;BME280;30146;52.268;20.944;2023-11-19T09:06:19;100349.07;;;1.93;71.85
44441;BME280;30146;52.268;20.944;2023-11-19T09:08:50;100341.66;;;1.99;71.86
44441;BME280;30146;52.268;20.944;2023-11-19T09:11:21;100340.29;;;2.05;71.93
44441;BME280;30146;52.268;20.944;2023-11-19T09:13:53;100339.25;;;2.11;71.76
44441;BME280;30146;52.268;20.944;2023-11-19T09:16:24;100330.83;;;2.11;71.36
44441;BME280;30146;52.268;20.944;2023-11-19T09:18:56;100322.62;;;2.14;71.35
44441;BME280;30146;52.268;20.944;2023-11-19T09:21:27;100316.41;;;2.15;71.46
44441;BME280;30146;52.268;20.944;2023-11-19T09:23:59;100314.33;;;2.20;71.66
44441;BME280;30146;52.268;20.944;2023-11-19T09:26:35;100315.58;;;2.23;71.41
44441;BME280;30146;52.268;20.944;2023-11-19T09:29:09;100315.61;;;2.24;71.23
44441;BME280;30146;52.268;20.944;2023-11-19T09:31:40;100313.60;;;2.24;71.03
44441;BME280;30146;52.268;20.944;2023-11-19T09:34:11;100310.25;;;2.25;71.36
44441;BME280;30146;52.268;20.944;2023-11-19T09:36:44;100307.62;;;2.28;71.39
44441;BME280;30146;52.268;20.944;2023-11-19T09:39:15;100300.88;;;2.28;71.39
44441;BME280;30146;52.268;20.944;2023-11-19T09:41:47;100298.72;;;2.29;71.65
44441;BME280;30146;52.268;20.944;2023-11-19T09:44:19;100297.20;;;2.30;71.42
44441;BME280;30146;52.268;20.944;2023-11-19T09:46:51;100300.62;;;2.33;71.62
44441;BME280;30146;52.268;20.944;2023-11-19T09:49:25;100295.23;;;2.32;71.55
44441;BME280;30146;52.268;20.944;2023-11-19T09:52:00;100293.13;;;2.29;71.02
44441;BME280;30146;52.268;20.944;2023-11-19T09:54:35;100287.03;;;2.28;71.20
44441;BME280;30146;52.268;20.944;2023-11-19T09:57:07;100279.67;;;2.30;71.64
44441;BME280;30146;52.268;20.944;2023-11-19T09:59:41;100278.88;;;2.33;71.65
44441;BME280;30146;52.268;20.944;2023-11-19T10:02:13;100274.74;;;2.37;71.95
44441;BME280;30146;52.268;20.944;2023-11-19T10:04:46;100274.19;;;2.41;72.03
44441;BME280;30146;52.268;20.944;2023-11-19T10:07:17;100266.60;;;2.42;71.77
44441;BME280;30146;52.268;20.944;2023-11-19T10:09:49;100264.14;;;2.38;71.25
44441;BME280;30146;52.268;20.944;2023-11-19T10:12:20;100257.20;;;2.36;71.50
44441;BME280;30146;52.268;20.944;2023-11-19T10:14:56;100251.50;;;2.37;71.43
44441;BME280;30146;52.268;20.944;2023-11-19T10:17:30;100246.46;;;2.39;71.61
44441;BME280;30146;52.268;20.944;2023-11-19T10:20:05;100247.48;;;2.39;71.50
44441;BME280;30146;52.268;20.944;2023-11-19T10:22:39;100234.05;;;2.35;71.12
44441;BME280;30146;52.268;20.944;2023-11-19T10:25:23;100234.16;;;2.32;71.16
44441;BME280;30146;52.268;20.944;2023-11-19T10:27:54;100234.00;;;2.32;71.37
44441;BME280;30146;52.268;20.944;2023-11-19T10:30:27;100227.11;;;2.34;71.39
44441;BME280;30146;52.268;20.944;2023-11-19T10:33:09;100222.42;;;2.35;71.44
44441;BME280;30146;52.268;20.944;2023-11-19T10:35:54;100216.65;;;2.34;71.29
44441;BME280;30146;52.268;20.944;2023-11-19T10:38:29;100209.83;;;2.30;71.16
44441;BME280;30146;52.268;20.944;2023-11-19T10:41:00;100205.63;;;2.31;71.51
44441;BME280;30146;52.268;20.944;2023-11-19T10:43:31;100198.09;;;2.33;71.60
44441;BME280;30146;52.268;20.944;2023-11-19T10:46:16;100196.81;;;2.37;71.88
44441;BME280;30146;52.268;20.944;2023-11-19T10:48:51;100192.14;;;2.39;71.87
44441;BME280;30146;52.268;20.944;2023-11-19T10:51:21;100190.13;;;2.39;71.53
44441;BME280;30146;52.268;20.944;2023-11-19T10:53:56;100185.06;;;2.39;71.57
44441;BME280;30146;52.268;20.944;2023-11-19T10:56:32;100171.33;;;2.36;71.14
44441;BME280;30146;52.268;20.944;2023-11-19T10:59:04;100162.72;;;2.36;71.52
44441;BME280;30146;52.268;20.944;2023-11-19T11:01:54;100155.46;;;2.35;71.63
44441;BME280;30146;52.268;20.944;2023-11-19T11:04:26;100146.98;;;2.33;71.22
44441;BME280;30146;52.268;20.944;2023-11-19T11:06:59;100141.95;;;2.26;71.09
44441;BME280;30146;52.268;20.944;2023-11-19T11:09:31;100136.14;;;2.23;71.39
44441;BME280;30146;52.268;20.944;2023-11-19T11:12:03;100131.91;;;2.22;71.30
44441;BME280;30146;52.268;20.944;2023-11-19T11:14:35;100126.08;;;2.25;71.88
44441;BME280;30146;52.268;20.944;2023-11-19T11:17:10;100118.83;;;2.25;71.64
44441;BME280;30146;52.268;20.944;2023-11-19T11:19:44;100112.25;;;2.25;71.61
44441;BME280;30146;52.268;20.944;2023-11-19T11:22:16;100107.98;;;2.22;71.36
44441;BME280;30146;52.268;20.944;2023-11-19T11:25:22;100102.92;;;2.23;71.63
44441;BME280;30146;52.268;20.944;2023-11-19T11:28:08;100098.73;;;2.24;71.67
44441;BME280;30146;52.268;20.944;2023-11-19T11:30:54;100093.30;;;2.22;71.73
44441;BME280;30146;52.268;20.944;2023-11-19T11:33:38;100091.04;;;2.19;71.55
44441;BME280;30146;52.268;20.944;2023-11-19T11:36:19;100090.64;;;2.16;71.61
44441;BME280;30146;52.268;20.944;2023-11-19T11:38:51;100083.38;;;2.16;71.75
44441;BME280;30146;52.268;20.944;2023-11-19T11:41:23;100083.43;;;2.18;71.83
44441;BME280;30146;52.268;20.944;2023-11-19T11:43:59;100079.01;;;2.17;71.55
44441;BME280;30146;52.268;20.944;2023-11-19T11:46:57;100072.08;;;2.16;71.68
44441;BME280;30146;52.268;20.944;2023-11-19T11:49:29;100064.69;;;2.17;71.73
44441;BME280;30146;52.268;20.944;2023-11-19T11:52:02;100058.27;;;2.17;71.91
44441;BME280;30146;52.268;20.944;2023-11-19T11:54:33;100052.72;;;2.17;71.80
44441;BME280;30146;52.268;20.944;2023-11-19T11:57:13;100046.14;;;2.17;71.69
44441;BME280;30146;52.268;20.944;2023-11-19T11:59:48;100045.50;;;2.18;71.70
44441;BME280;30146;52.268;20.944;2023-11-19T12:02:21;100036.61;;;2.21;72.08
44441;BME280;30146;52.268;20.944;2023-11-19T12:04:53;100033.66;;;2.25;72.05
44441;BME280;30146;52.268;20.944;2023-11-19T12:07:25;100027.96;;;2.27;71.79
44441;BME280;30146;52.268;20.944;2023-11-19T12:10:08;100019.39;;;2.29;71.68
44441;BME280;30146;52.268;20.944;2023-11-19T12:12:41;100016.48;;;2.27;71.77
44441;BME280;30146;52.268;20.944;2023-11-19T12:15:12;100008.37;;;2.26;71.78
44441;BME280;30146;52.268;20.944;2023-11-19T12:17:48;100009.32;;;2.22;71.58
44441;BME280;30146;52.268;20.944;2023-11-19T12:20:22;99999.45;;;2.18;71.50
44441;BME280;30146;52.268;20.944;2023-11-19T12:22:56;99997.00;;;2.13;71.69
44441;BME280;30146;52.268;20.944;2023-11-19T12:25:28;99991.68;;;2.08;71.53
44441;BME280;30146;52.268;20.944;2023-11-19T12:28:05;99984.66;;;2.02;71.57
44441;BME280;30146;52.268;20.944;2023-11-19T12:30:36;99981.88;;;1.98;71.79
44441;BME280;30146;52.268;20.944;2023-11-19T12:33:10;99979.49;;;1.97;71.97
44441;BME280;30146;52.268;20.944;2023-11-19T12:35:42;99976.80;;;1.96;72.11
44441;BME280;30146;52.268;20.944;2023-11-19T12:38:21;99973.60;;;1.97;72.06
44441;BME280;30146;52.268;20.944;2023-11-19T12:41:05;99975.45;;;1.97;72.18
44441;BME280;30146;52.268;20.944;2023-11-19T12:43:36;99969.55;;;1.98;72.45
44441;BME280;30146;52.268;20.944;2023-11-19T12:46:19;99967.39;;;1.98;72.38
44441;BME280;30146;52.268;20.944;2023-11-19T12:48:51;99971.45;;;1.99;72.46
44441;BME280;30146;52.268;20.944;2023-11-19T12:51:32;99964.88;;;1.99;72.19
44441;BME280;30146;52.268;20.944;2023-11-19T12:54:03;99968.59;;;2.00;72.25
44441;BME280;30146;52.268;20.944;2023-11-19T12:56:34;99963.02;;;2.00;72.15
44441;BME280;30146;52.268;20.944;2023-11-19T12:59:15;99964.39;;;2.00;72.39
44441;BME280;30146;52.268;20.944;2023-11-19T13:01:56;99968.45;;;2.01;72.49
44441;BME280;30146;52.268;20.944;2023-11-19T13:04:30;99960.55;;;2.02;72.43
44441;BME280;30146;52.268;20.944;2023-11-19T13:07:01;99955.80;;;2.01;72.14
44441;BME280;30146;52.268;20.944;2023-11-19T13:09:34;99953.29;;;2.02;72.58
44441;BME280;30146;52.268;20.944;2023-11-19T13:12:15;99951.52;;;2.05;72.41
44441;BME280;30146;52.268;20.944;2023-11-19T13:14:46;99948.34;;;2.08;72.40
44441;BME280;30146;52.268;20.944;2023-11-19T13:17:19;99942.77;;;2.07;72.42
44441;BME280;30146;52.268;20.944;2023-11-19T13:19:50;99935.36;;;2.07;72.23
44441;BME280;30146;52.268;20.944;2023-11-19T13:22:21;99925.27;;;2.09;72.55